sensor_id;sensor_type;location;lat;lon;timestamp;temperature;humidity
12434;DHT22;6281;49.038;8.372;2022-12-11T00:01:19;0.40;99.90
12434;DHT22;6281;49.038;8.372;2022-12-11T00:03:47;0.20;99.90
12434;DHT22;6281;49.038;8.372;2022-12-11T00:06:17;0.30;99.90
12434;DHT22;6281;49.038;8.372;2022-12-11T00:08:44;0.40;99.90
12434;DHT22;6281;49.038;8.372;2022-12-11T00:11:12;0.40;99.90
12434;DHT22;6281;49.038;8.372;2022-12-11T00:13:41;0.40;99.90
12434;DHT22;6281;49.038;8.372;2022-12-11T00:16:08;0.40;99.90
12434;DHT22;6281;49.038;8.372;2022-12-11T00:18:35;0.50;99.90
12434;DHT22;6281;49.038;8.372;2022-12-11T00:21:03;0.60;99.90
12434;DHT22;6281;49.038;8.372;2022-12-11T00:23:34;0.50;99.90
12434;DHT22;6281;49.038;8.372;2022-12-11T00:26:05;0.50;99.90
12434;DHT22;6281;49.038;8.372;2022-12-11T00:28:32;0.60;99.90
12434;DHT22;6281;49.038;8.372;2022-12-11T00:31:02;0.60;99.90
12434;DHT22;6281;49.038;8.372;2022-12-11T00:33:29;0.50;99.90
12434;DHT22;6281;49.038;8.372;2022-12-11T00:35:56;0.40;99.90
12434;DHT22;6281;49.038;8.372;2022-12-11T00:38:23;0.60;99.90
12434;DHT22;6281;49.038;8.372;2022-12-11T00:40:50;0.40;99.90
12434;DHT22;6281;49.038;8.372;2022-12-11T00:43:16;0.60;99.90
12434;DHT22;6281;49.038;8.372;2022-12-11T00:45:44;0.40;99.90
12434;DHT22;6281;49.038;8.372;2022-12-11T00:48:13;0.10;99.90
12434;DHT22;6281;49.038;8.372;2022-12-11T00:50:40;0.10;99.90
12434;DHT22;6281;49.038;8.372;2022-12-11T00:53:07;0.30;99.90
12434;DHT22;6281;49.038;8.372;2022-12-11T00:55:36;0.00;99.90
12434;DHT22;6281;49.038;8.372;2022-12-11T00:58:07;0.10;99.90
12434;DHT22;6281;49.038;8.372;2022-12-11T01:00:34;-0.20;99.90
12434;DHT22;6281;49.038;8.372;2022-12-11T01:03:01;0.00;99.90
12434;DHT22;6281;49.038;8.372;2022-12-11T01:05:29;-0.10;99.90
12434;DHT22;6281;49.038;8.372;2022-12-11T01:07:56;-0.10;99.90
12434;DHT22;6281;49.038;8.372;2022-12-11T01:10:27;-0.50;99.90
12434;DHT22;6281;49.038;8.372;2022-12-11T01:12:58;-0.60;99.90
12434;DHT22;6281;49.038;8.372;2022-12-11T01:15:27;-0.50;99.90
12434;DHT22;6281;49.038;8.372;2022-12-11T01:17:55;0.00;99.90
12434;DHT22;6281;49.038;8.372;2022-12-11T01:20:23;-0.20;99.90
12434;DHT22;6281;49.038;8.372;2022-12-11T01:22:59;-0.50;99.90
12434;DHT22;6281;49.038;8.372;2022-12-11T01:25:34;-0.50;99.90
12434;DHT22;6281;49.038;8.372;2022-12-11T01:28:05;-0.70;99.90
12434;DHT22;6281;49.038;8.372;2022-12-11T01:30:46;-0.40;99.90
12434;DHT22;6281;49.038;8.372;2022-12-11T01:35:56;-1.00;99.90
12434;DHT22;6281;49.038;8.372;2022-12-11T01:38:25;-1.10;99.90
12434;DHT22;6281;49.038;8.372;2022-12-11T01:40:54;-1.30;99.90
12434;DHT22;6281;49.038;8.372;2022-12-11T01:43:21;-1.20;99.90
12434;DHT22;6281;49.038;8.372;2022-12-11T01:45:48;-1.00;99.90
12434;DHT22;6281;49.038;8.372;2022-12-11T01:48:20;-1.10;99.90
12434;DHT22;6281;49.038;8.372;2022-12-11T01:50:52;-1.10;99.90
12434;DHT22;6281;49.038;8.372;2022-12-11T01:53:23;-1.20;99.90
12434;DHT22;6281;49.038;8.372;2022-12-11T01:55:54;-1.40;99.90
12434;DHT22;6281;49.038;8.372;2022-12-11T01:58:25;-1.30;99.90
12434;DHT22;6281;49.038;8.372;2022-12-11T02:00:53;-1.50;99.90
12434;DHT22;6281;49.038;8.372;2022-12-11T02:03:23;-1.50;99.90
12434;DHT22;6281;49.038;8.372;2022-12-11T02:06:33;-1.40;99.90
12434;DHT22;6281;49.038;8.372;2022-12-11T02:09:03;-1.50;99.90
12434;DHT22;6281;49.038;8.372;2022-12-11T02:11:38;-1.40;99.90
12434;DHT22;6281;49.038;8.372;2022-12-11T02:14:11;-1.40;99.90
12434;DHT22;6281;49.038;8.372;2022-12-11T02:16:46;-1.60;99.90
12434;DHT22;6281;49.038;8.372;2022-12-11T02:19:33;-1.60;99.90
12434;DHT22;6281;49.038;8.372;2022-12-11T02:22:07;-1.50;99.90
12434;DHT22;6281;49.038;8.372;2022-12-11T02:24:50;-1.60;99.90
12434;DHT22;6281;49.038;8.372;2022-12-11T02:27:33;-1.80;99.90
12434;DHT22;6281;49.038;8.372;2022-12-11T02:30:06;-2.00;99.90
12434;DHT22;6281;49.038;8.372;2022-12-11T02:32:36;-1.90;99.90
12434;DHT22;6281;49.038;8.372;2022-12-11T02:35:11;-2.00;99.90
12434;DHT22;6281;49.038;8.372;2022-12-11T02:37:42;-1.90;99.90
12434;DHT22;6281;49.038;8.372;2022-12-11T02:40:12;-1.90;99.90
12434;DHT22;6281;49.038;8.372;2022-12-11T02:42:42;-2.10;99.90
12434;DHT22;6281;49.038;8.372;2022-12-11T02:45:12;-2.20;99.90
12434;DHT22;6281;49.038;8.372;2022-12-11T02:47:47;-2.10;99.90
12434;DHT22;6281;49.038;8.372;2022-12-11T02:50:20;-1.60;99.90
12434;DHT22;6281;49.038;8.372;2022-12-11T02:53:01;-2.00;99.90
12434;DHT22;6281;49.038;8.372;2022-12-11T02:55:36;-2.00;99.90
12434;DHT22;6281;49.038;8.372;2022-12-11T02:58:08;-2.30;99.90
12434;DHT22;6281;49.038;8.372;2022-12-11T03:00:50;-2.20;99.90
12434;DHT22;6281;49.038;8.372;2022-12-11T03:03:17;-2.10;99.90
12434;DHT22;6281;49.038;8.372;2022-12-11T03:05:44;-1.90;99.90
12434;DHT22;6281;49.038;8.372;2022-12-11T03:08:12;-1.90;99.90
12434;DHT22;6281;49.038;8.372;2022-12-11T03:10:43;-1.90;99.90
12434;DHT22;6281;49.038;8.372;2022-12-11T03:13:11;-2.00;99.90
12434;DHT22;6281;49.038;8.372;2022-12-11T03:15:44;-1.80;99.90
12434;DHT22;6281;49.038;8.372;2022-12-11T03:18:22;-1.90;99.90
12434;DHT22;6281;49.038;8.372;2022-12-11T03:21:02;-1.80;99.90
12434;DHT22;6281;49.038;8.372;2022-12-11T03:23:36;-1.90;99.90
12434;DHT22;6281;49.038;8.372;2022-12-11T03:26:06;-1.70;99.90
12434;DHT22;6281;49.038;8.372;2022-12-11T03:28:40;-1.60;99.90
12434;DHT22;6281;49.038;8.372;2022-12-11T03:31:12;-1.90;99.90
12434;DHT22;6281;49.038;8.372;2022-12-11T03:33:44;-1.60;99.90
12434;DHT22;6281;49.038;8.372;2022-12-11T03:36:16;-1.70;99.90
12434;DHT22;6281;49.038;8.372;2022-12-11T03:38:47;-1.60;99.90
12434;DHT22;6281;49.038;8.372;2022-12-11T03:41:17;-1.50;99.90
12434;DHT22;6281;49.038;8.372;2022-12-11T03:43:47;-1.70;99.90
12434;DHT22;6281;49.038;8.372;2022-12-11T03:46:18;-1.40;99.90
12434;DHT22;6281;49.038;8.372;2022-12-11T03:48:49;-1.20;99.90
12434;DHT22;6281;49.038;8.372;2022-12-11T03:51:17;-1.50;99.90
12434;DHT22;6281;49.038;8.372;2022-12-11T03:53:45;-1.60;99.90
12434;DHT22;6281;49.038;8.372;2022-12-11T03:56:14;-1.50;99.90
12434;DHT22;6281;49.038;8.372;2022-12-11T03:58:42;-1.40;99.90
12434;DHT22;6281;49.038;8.372;2022-12-11T04:01:09;-1.40;99.90
12434;DHT22;6281;49.038;8.372;2022-12-11T04:03:37;-1.60;99.90
12434;DHT22;6281;49.038;8.372;2022-12-11T04:06:06;-1.60;99.90
12434;DHT22;6281;49.038;8.372;2022-12-11T04:08:33;-1.50;99.90
12434;DHT22;6281;49.038;8.372;2022-12-11T04:11:02;-1.50;99.90
12434;DHT22;6281;49.038;8.372;2022-12-11T04:13:47;-1.60;99.90
12434;DHT22;6281;49.038;8.372;2022-12-11T04:16:34;-1.40;99.90
12434;DHT22;6281;49.038;8.372;2022-12-11T04:19:00;-1.40;99.90
12434;DHT22;6281;49.038;8.372;2022-12-11T04:22:00;-1.60;99.90
12434;DHT22;6281;49.038;8.372;2022-12-11T04:24:46;-1.50;99.90
12434;DHT22;6281;49.038;8.372;2022-12-11T04:27:14;-1.30;99.90
12434;DHT22;6281;49.038;8.372;2022-12-11T04:30:02;-1.20;99.90
12434;DHT22;6281;49.038;8.372;2022-12-11T04:32:30;-1.40;99.90
12434;DHT22;6281;49.038;8.372;2022-12-11T04:34:57;-1.20;99.90
12434;DHT22;6281;49.038;8.372;2022-12-11T04:37:26;-1.20;99.90
12434;DHT22;6281;49.038;8.372;2022-12-11T04:39:53;-1.30;99.90
12434;DHT22;6281;49.038;8.372;2022-12-11T04:42:20;-1.30;99.90
12434;DHT22;6281;49.038;8.372;2022-12-11T04:44:47;-1.30;99.90
12434;DHT22;6281;49.038;8.372;2022-12-11T04:47:14;-1.30;99.90
12434;DHT22;6281;49.038;8.372;2022-12-11T04:49:40;-1.10;99.90
12434;DHT22;6281;49.038;8.372;2022-12-11T04:52:08;-1.20;99.90
12434;DHT22;6281;49.038;8.372;2022-12-11T04:54:36;-1.30;99.90
12434;DHT22;6281;49.038;8.372;2022-12-11T04:57:03;-1.20;99.90
12434;DHT22;6281;49.038;8.372;2022-12-11T04:59:30;-1.10;99.90
12434;DHT22;6281;49.038;8.372;2022-12-11T05:01:57;-1.20;99.90
12434;DHT22;6281;49.038;8.372;2022-12-11T05:04:24;-1.30;99.90
12434;DHT22;6281;49.038;8.372;2022-12-11T05:06:51;-1.30;99.90
12434;DHT22;6281;49.038;8.372;2022-12-11T05:09:18;-1.10;99.90
12434;DHT22;6281;49.038;8.372;2022-12-11T05:11:47;-1.20;99.90
12434;DHT22;6281;49.038;8.372;2022-12-11T05:14:14;-1.20;99.90
12434;DHT22;6281;49.038;8.372;2022-12-11T05:16:41;-1.30;99.90
12434;DHT22;6281;49.038;8.372;2022-12-11T05:19:08;-1.40;99.90
12434;DHT22;6281;49.038;8.372;2022-12-11T05:21:35;-1.50;99.90
12434;DHT22;6281;49.038;8.372;2022-12-11T05:24:02;-1.30;99.90
12434;DHT22;6281;49.038;8.372;2022-12-11T05:26:29;-1.40;99.90
12434;DHT22;6281;49.038;8.372;2022-12-11T05:28:57;-1.20;99.90
12434;DHT22;6281;49.038;8.372;2022-12-11T05:31:26;-1.30;99.90
12434;DHT22;6281;49.038;8.372;2022-12-11T05:33:53;-1.40;99.90
12434;DHT22;6281;49.038;8.372;2022-12-11T05:36:22;-1.30;99.90
12434;DHT22;6281;49.038;8.372;2022-12-11T05:38:50;-1.30;99.90
12434;DHT22;6281;49.038;8.372;2022-12-11T05:41:19;-1.30;99.90
12434;DHT22;6281;49.038;8.372;2022-12-11T05:43:46;-1.40;99.90
12434;DHT22;6281;49.038;8.372;2022-12-11T05:46:17;-1.30;99.90
12434;DHT22;6281;49.038;8.372;2022-12-11T05:48:47;-1.40;99.90
12434;DHT22;6281;49.038;8.372;2022-12-11T05:51:14;-1.30;99.90
12434;DHT22;6281;49.038;8.372;2022-12-11T05:53:43;-1.10;99.90
12434;DHT22;6281;49.038;8.372;2022-12-11T05:56:12;-1.20;99.90
12434;DHT22;6281;49.038;8.372;2022-12-11T05:58:40;-1.50;99.90
12434;DHT22;6281;49.038;8.372;2022-12-11T06:01:08;-1.40;99.90
12434;DHT22;6281;49.038;8.372;2022-12-11T06:03:37;-1.40;99.90
12434;DHT22;6281;49.038;8.372;2022-12-11T06:06:05;-1.50;99.90
12434;DHT22;6281;49.038;8.372;2022-12-11T06:08:33;-1.30;99.90
12434;DHT22;6281;49.038;8.372;2022-12-11T06:11:03;-1.50;99.90
12434;DHT22;6281;49.038;8.372;2022-12-11T06:13:31;-1.50;99.90
12434;DHT22;6281;49.038;8.372;2022-12-11T06:15:59;-1.30;99.90
12434;DHT22;6281;49.038;8.372;2022-12-11T06:18:27;-1.40;99.90
12434;DHT22;6281;49.038;8.372;2022-12-11T06:20:55;-1.20;99.90
12434;DHT22;6281;49.038;8.372;2022-12-11T06:23:22;-1.20;99.90
12434;DHT22;6281;49.038;8.372;2022-12-11T06:25:49;-1.30;99.90
12434;DHT22;6281;49.038;8.372;2022-12-11T06:28:16;-1.50;99.90
12434;DHT22;6281;49.038;8.372;2022-12-11T06:30:43;-1.50;99.90
12434;DHT22;6281;49.038;8.372;2022-12-11T06:33:10;-1.40;99.90
12434;DHT22;6281;49.038;8.372;2022-12-11T06:35:37;-1.50;99.90
12434;DHT22;6281;49.038;8.372;2022-12-11T06:38:06;-1.50;99.90
12434;DHT22;6281;49.038;8.372;2022-12-11T06:40:33;-1.30;99.90
12434;DHT22;6281;49.038;8.372;2022-12-11T06:43:00;-1.20;99.90
12434;DHT22;6281;49.038;8.372;2022-12-11T06:45:26;-1.40;99.90
12434;DHT22;6281;49.038;8.372;2022-12-11T06:47:53;-1.30;99.90
12434;DHT22;6281;49.038;8.372;2022-12-11T06:50:20;-1.50;99.90
12434;DHT22;6281;49.038;8.372;2022-12-11T06:52:47;-1.50;99.90
12434;DHT22;6281;49.038;8.372;2022-12-11T06:55:16;-1.40;99.90
12434;DHT22;6281;49.038;8.372;2022-12-11T06:57:43;-1.30;99.90
12434;DHT22;6281;49.038;8.372;2022-12-11T07:00:11;-1.20;99.90
12434;DHT22;6281;49.038;8.372;2022-12-11T07:02:38;-1.20;99.90
12434;DHT22;6281;49.038;8.372;2022-12-11T07:05:06;-1.50;99.90
12434;DHT22;6281;49.038;8.372;2022-12-11T07:07:32;-1.40;99.90
12434;DHT22;6281;49.038;8.372;2022-12-11T07:10:00;-1.30;99.90
12434;DHT22;6281;49.038;8.372;2022-12-11T07:12:28;-1.50;99.90
12434;DHT22;6281;49.038;8.372;2022-12-11T07:14:55;-1.10;99.90
12434;DHT22;6281;49.038;8.372;2022-12-11T07:17:22;-1.50;99.90
12434;DHT22;6281;49.038;8.372;2022-12-11T07:19:49;-1.50;99.90
12434;DHT22;6281;49.038;8.372;2022-12-11T07:22:16;-1.40;99.90
12434;DHT22;6281;49.038;8.372;2022-12-11T07:24:43;-1.40;99.90
12434;DHT22;6281;49.038;8.372;2022-12-11T07:27:09;-1.10;99.90
12434;DHT22;6281;49.038;8.372;2022-12-11T07:29:38;-1.20;99.90
12434;DHT22;6281;49.038;8.372;2022-12-11T07:32:05;-1.30;99.90
12434;DHT22;6281;49.038;8.372;2022-12-11T07:34:32;-1.40;99.90
12434;DHT22;6281;49.038;8.372;2022-12-11T07:36:59;-1.20;99.90
12434;DHT22;6281;49.038;8.372;2022-12-11T07:39:26;-1.10;99.90
12434;DHT22;6281;49.038;8.372;2022-12-11T07:41:53;-1.10;99.90
12434;DHT22;6281;49.038;8.372;2022-12-11T07:44:20;-1.20;99.90
12434;DHT22;6281;49.038;8.372;2022-12-11T07:46:49;-0.80;99.90
12434;DHT22;6281;49.038;8.372;2022-12-11T07:49:16;-1.10;99.90
12434;DHT22;6281;49.038;8.372;2022-12-11T07:51:43;-1.20;99.90
12434;DHT22;6281;49.038;8.372;2022-12-11T07:54:11;-1.20;99.90
12434;DHT22;6281;49.038;8.372;2022-12-11T07:56:41;-1.10;99.90
12434;DHT22;6281;49.038;8.372;2022-12-11T07:59:08;-1.30;99.90
12434;DHT22;6281;49.038;8.372;2022-12-11T08:01:37;-1.20;99.90
12434;DHT22;6281;49.038;8.372;2022-12-11T08:04:07;-1.10;99.90
12434;DHT22;6281;49.038;8.372;2022-12-11T08:06:36;-0.90;99.90
12434;DHT22;6281;49.038;8.372;2022-12-11T08:09:05;-1.10;99.90
12434;DHT22;6281;49.038;8.372;2022-12-11T08:11:33;-1.20;99.90
12434;DHT22;6281;49.038;8.372;2022-12-11T08:14:00;-0.90;99.90
12434;DHT22;6281;49.038;8.372;2022-12-11T08:16:27;-1.10;99.90
12434;DHT22;6281;49.038;8.372;2022-12-11T08:18:54;-0.90;99.90
12434;DHT22;6281;49.038;8.372;2022-12-11T08:21:23;-1.00;99.90
12434;DHT22;6281;49.038;8.372;2022-12-11T08:23:51;-0.90;99.90
12434;DHT22;6281;49.038;8.372;2022-12-11T08:26:20;-0.70;99.90
12434;DHT22;6281;49.038;8.372;2022-12-11T08:28:47;-0.90;99.90
12434;DHT22;6281;49.038;8.372;2022-12-11T08:31:15;-0.80;99.90
12434;DHT22;6281;49.038;8.372;2022-12-11T08:33:43;-0.80;99.90
12434;DHT22;6281;49.038;8.372;2022-12-11T08:36:12;-0.60;99.90
12434;DHT22;6281;49.038;8.372;2022-12-11T08:38:41;-0.80;99.90
12434;DHT22;6281;49.038;8.372;2022-12-11T08:41:09;-0.80;99.90
12434;DHT22;6281;49.038;8.372;2022-12-11T08:43:36;-0.80;99.90
12434;DHT22;6281;49.038;8.372;2022-12-11T08:46:04;-0.70;99.90
12434;DHT22;6281;49.038;8.372;2022-12-11T08:48:31;-0.60;99.90
12434;DHT22;6281;49.038;8.372;2022-12-11T08:50:59;-0.50;99.90
12434;DHT22;6281;49.038;8.372;2022-12-11T08:53:27;-0.60;99.90
12434;DHT22;6281;49.038;8.372;2022-12-11T08:55:59;-0.50;99.90
12434;DHT22;6281;49.038;8.372;2022-12-11T08:58:27;-0.60;99.90
12434;DHT22;6281;49.038;8.372;2022-12-11T09:00:54;-0.60;99.90
12434;DHT22;6281;49.038;8.372;2022-12-11T09:03:21;-0.60;99.90
12434;DHT22;6281;49.038;8.372;2022-12-11T09:05:48;-0.50;99.90
12434;DHT22;6281;49.038;8.372;2022-12-11T09:08:15;-0.50;99.90
12434;DHT22;6281;49.038;8.372;2022-12-11T09:10:42;-0.50;99.90
12434;DHT22;6281;49.038;8.372;2022-12-11T09:13:10;-0.40;99.90
12434;DHT22;6281;49.038;8.372;2022-12-11T09:15:39;-0.20;99.90
12434;DHT22;6281;49.038;8.372;2022-12-11T09:18:06;-0.40;99.90
12434;DHT22;6281;49.038;8.372;2022-12-11T09:20:33;-0.20;99.90
12434;DHT22;6281;49.038;8.372;2022-12-11T09:23:01;-0.20;99.90
12434;DHT22;6281;49.038;8.372;2022-12-11T09:25:28;-0.20;99.90
12434;DHT22;6281;49.038;8.372;2022-12-11T09:27:55;-0.10;99.90
12434;DHT22;6281;49.038;8.372;2022-12-11T09:30:23;-0.20;99.90
12434;DHT22;6281;49.038;8.372;2022-12-11T09:32:50;-0.30;99.90
12434;DHT22;6281;49.038;8.372;2022-12-11T09:35:17;-0.10;99.90
12434;DHT22;6281;49.038;8.372;2022-12-11T09:37:44;-0.10;99.90
12434;DHT22;6281;49.038;8.372;2022-12-11T09:40:12;0.00;99.90
12434;DHT22;6281;49.038;8.372;2022-12-11T09:42:50;-0.30;99.90
12434;DHT22;6281;49.038;8.372;2022-12-11T09:45:19;-0.40;99.90
12434;DHT22;6281;49.038;8.372;2022-12-11T09:47:48;-0.30;99.90
12434;DHT22;6281;49.038;8.372;2022-12-11T09:50:20;-0.30;99.90
12434;DHT22;6281;49.038;8.372;2022-12-11T09:52:58;0.10;99.90
12434;DHT22;6281;49.038;8.372;2022-12-11T09:55:34;-0.10;99.90
12434;DHT22;6281;49.038;8.372;2022-12-11T09:58:12;-0.10;99.90
12434;DHT22;6281;49.038;8.372;2022-12-11T10:00:46;-0.10;99.90
12434;DHT22;6281;49.038;8.372;2022-12-11T10:03:48;-0.10;99.90
12434;DHT22;6281;49.038;8.372;2022-12-11T10:06:23;0.00;99.90
12434;DHT22;6281;49.038;8.372;2022-12-11T10:09:02;-0.10;99.90
12434;DHT22;6281;49.038;8.372;2022-12-11T10:11:43;0.10;99.90
12434;DHT22;6281;49.038;8.372;2022-12-11T10:14:21;0.00;99.90
12434;DHT22;6281;49.038;8.372;2022-12-11T10:16:53;0.00;99.90
12434;DHT22;6281;49.038;8.372;2022-12-11T10:19:27;0.10;99.90
12434;DHT22;6281;49.038;8.372;2022-12-11T10:21:54;0.20;99.90
12434;DHT22;6281;49.038;8.372;2022-12-11T10:24:28;0.10;99.90
12434;DHT22;6281;49.038;8.372;2022-12-11T10:26:58;0.30;99.90
12434;DHT22;6281;49.038;8.372;2022-12-11T10:29:34;0.20;99.90
12434;DHT22;6281;49.038;8.372;2022-12-11T10:32:02;0.10;99.90
12434;DHT22;6281;49.038;8.372;2022-12-11T10:34:34;-0.10;99.90
12434;DHT22;6281;49.038;8.372;2022-12-11T10:37:02;0.30;99.90
12434;DHT22;6281;49.038;8.372;2022-12-11T10:39:29;0.20;99.90
12434;DHT22;6281;49.038;8.372;2022-12-11T10:41:56;0.50;99.90
12434;DHT22;6281;49.038;8.372;2022-12-11T10:44:25;0.40;99.90
12434;DHT22;6281;49.038;8.372;2022-12-11T10:47:03;0.20;99.90
12434;DHT22;6281;49.038;8.372;2022-12-11T10:49:33;0.20;99.90
12434;DHT22;6281;49.038;8.372;2022-12-11T10:52:01;0.10;99.90
12434;DHT22;6281;49.038;8.372;2022-12-11T10:54:37;0.00;99.90
12434;DHT22;6281;49.038;8.372;2022-12-11T10:57:06;0.20;99.90
12434;DHT22;6281;49.038;8.372;2022-12-11T10:59:36;0.00;99.90
12434;DHT22;6281;49.038;8.372;2022-12-11T11:02:04;0.30;99.90
12434;DHT22;6281;49.038;8.372;2022-12-11T11:04:36;0.00;99.90
12434;DHT22;6281;49.038;8.372;2022-12-11T11:07:11;0.20;99.90
12434;DHT22;6281;49.038;8.372;2022-12-11T11:09:39;0.20;99.90
12434;DHT22;6281;49.038;8.372;2022-12-11T11:12:17;0.30;99.90
12434;DHT22;6281;49.038;8.372;2022-12-11T11:14:45;0.20;99.90
12434;DHT22;6281;49.038;8.372;2022-12-11T11:17:14;0.40;99.90
12434;DHT22;6281;49.038;8.372;2022-12-11T11:19:46;0.40;99.90
12434;DHT22;6281;49.038;8.372;2022-12-11T11:22:14;0.50;99.90
12434;DHT22;6281;49.038;8.372;2022-12-11T11:24:44;0.60;99.90
12434;DHT22;6281;49.038;8.372;2022-12-11T11:27:13;0.50;99.90
12434;DHT22;6281;49.038;8.372;2022-12-11T11:29:46;0.60;99.90
12434;DHT22;6281;49.038;8.372;2022-12-11T11:32:16;0.40;99.90
12434;DHT22;6281;49.038;8.372;2022-12-11T11:34:45;0.40;99.90
12434;DHT22;6281;49.038;8.372;2022-12-11T11:37:23;0.60;99.90
12434;DHT22;6281;49.038;8.372;2022-12-11T11:39:53;0.80;99.90
12434;DHT22;6281;49.038;8.372;2022-12-11T11:42:36;0.70;99.90
12434;DHT22;6281;49.038;8.372;2022-12-11T11:45:08;0.30;99.90
12434;DHT22;6281;49.038;8.372;2022-12-11T11:47:41;0.40;99.90
12434;DHT22;6281;49.038;8.372;2022-12-11T11:50:17;0.60;99.90
12434;DHT22;6281;49.038;8.372;2022-12-11T11:52:49;0.80;99.90
12434;DHT22;6281;49.038;8.372;2022-12-11T11:55:19;0.50;99.90
12434;DHT22;6281;49.038;8.372;2022-12-11T11:57:52;0.70;99.90
12434;DHT22;6281;49.038;8.372;2022-12-11T12:00:22;0.70;99.90
12434;DHT22;6281;49.038;8.372;2022-12-11T12:02:54;0.70;99.90
12434;DHT22;6281;49.038;8.372;2022-12-11T12:05:27;0.50;99.90
12434;DHT22;6281;49.038;8.372;2022-12-11T12:08:05;0.80;99.90
12434;DHT22;6281;49.038;8.372;2022-12-11T12:10:41;0.70;99.90
12434;DHT22;6281;49.038;8.372;2022-12-11T12:13:16;0.70;99.90
12434;DHT22;6281;49.038;8.372;2022-12-11T12:15:54;0.60;99.90
12434;DHT22;6281;49.038;8.372;2022-12-11T12:18:29;0.60;99.90
12434;DHT22;6281;49.038;8.372;2022-12-11T12:21:11;0.70;99.90
12434;DHT22;6281;49.038;8.372;2022-12-11T12:23:55;0.60;99.90
12434;DHT22;6281;49.038;8.372;2022-12-11T12:26:28;0.70;99.90
12434;DHT22;6281;49.038;8.372;2022-12-11T12:29:05;0.50;99.90
12434;DHT22;6281;49.038;8.372;2022-12-11T12:34:36;0.90;99.90
12434;DHT22;6281;49.038;8.372;2022-12-11T12:37:13;0.90;99.90
12434;DHT22;6281;49.038;8.372;2022-12-11T12:39:48;0.90;99.90
12434;DHT22;6281;49.038;8.372;2022-12-11T12:42:27;1.10;99.90
12434;DHT22;6281;49.038;8.372;2022-12-11T12:44:58;1.10;99.90
12434;DHT22;6281;49.038;8.372;2022-12-11T12:47:31;1.60;99.90
12434;DHT22;6281;49.038;8.372;2022-12-11T12:50:00;1.40;99.90
12434;DHT22;6281;49.038;8.372;2022-12-11T12:52:32;1.30;99.90
12434;DHT22;6281;49.038;8.372;2022-12-11T12:55:03;1.10;99.90
12434;DHT22;6281;49.038;8.372;2022-12-11T12:57:43;0.90;99.90
12434;DHT22;6281;49.038;8.372;2022-12-11T13:00:11;0.90;99.90
12434;DHT22;6281;49.038;8.372;2022-12-11T13:02:47;0.70;99.90
12434;DHT22;6281;49.038;8.372;2022-12-11T13:05:20;0.80;99.90
12434;DHT22;6281;49.038;8.372;2022-12-11T13:07:50;0.60;99.90
12434;DHT22;6281;49.038;8.372;2022-12-11T13:10:29;0.90;99.90
12434;DHT22;6281;49.038;8.372;2022-12-11T13:12:58;1.00;99.90
12434;DHT22;6281;49.038;8.372;2022-12-11T13:15:34;0.80;99.90
12434;DHT22;6281;49.038;8.372;2022-12-11T13:18:03;0.90;99.90
12434;DHT22;6281;49.038;8.372;2022-12-11T13:20:32;0.50;99.90
12434;DHT22;6281;49.038;8.372;2022-12-11T13:23:18;0.70;99.90
12434;DHT22;6281;49.038;8.372;2022-12-11T13:25:49;0.70;99.90
12434;DHT22;6281;49.038;8.372;2022-12-11T13:28:25;0.90;99.90
12434;DHT22;6281;49.038;8.372;2022-12-11T13:31:04;0.90;99.90
12434;DHT22;6281;49.038;8.372;2022-12-11T13:33:38;1.10;99.90
12434;DHT22;6281;49.038;8.372;2022-12-11T13:36:27;0.90;99.90
12434;DHT22;6281;49.038;8.372;2022-12-11T13:39:00;1.00;99.90
12434;DHT22;6281;49.038;8.372;2022-12-11T13:41:28;1.10;99.90
12434;DHT22;6281;49.038;8.372;2022-12-11T13:43:56;1.30;99.90
12434;DHT22;6281;49.038;8.372;2022-12-11T13:46:26;1.50;99.90
12434;DHT22;6281;49.038;8.372;2022-12-11T13:48:55;1.30;99.90
12434;DHT22;6281;49.038;8.372;2022-12-11T13:51:26;1.40;99.90
12434;DHT22;6281;49.038;8.372;2022-12-11T13:54:15;1.50;99.90
12434;DHT22;6281;49.038;8.372;2022-12-11T13:57:02;1.20;99.90
12434;DHT22;6281;49.038;8.372;2022-12-11T13:59:31;1.10;99.90
12434;DHT22;6281;49.038;8.372;2022-12-11T14:02:09;1.40;99.90
12434;DHT22;6281;49.038;8.372;2022-12-11T14:04:39;1.40;99.90
12434;DHT22;6281;49.038;8.372;2022-12-11T14:07:06;1.20;99.90
12434;DHT22;6281;49.038;8.372;2022-12-11T14:09:37;1.10;99.90
12434;DHT22;6281;49.038;8.372;2022-12-11T14:12:06;1.10;99.90
12434;DHT22;6281;49.038;8.372;2022-12-11T14:14:39;1.40;99.90
12434;DHT22;6281;49.038;8.372;2022-12-11T14:17:11;1.30;99.90
12434;DHT22;6281;49.038;8.372;2022-12-11T14:19:44;1.30;99.90
12434;DHT22;6281;49.038;8.372;2022-12-11T14:22:17;1.20;99.90
12434;DHT22;6281;49.038;8.372;2022-12-11T14:24:49;1.10;99.90
12434;DHT22;6281;49.038;8.372;2022-12-11T14:27:17;1.20;99.90
12434;DHT22;6281;49.038;8.372;2022-12-11T14:29:45;1.50;99.90
12434;DHT22;6281;49.038;8.372;2022-12-11T14:32:19;1.00;99.90
12434;DHT22;6281;49.038;8.372;2022-12-11T14:34:48;1.50;99.90
12434;DHT22;6281;49.038;8.372;2022-12-11T14:37:18;1.10;99.90
12434;DHT22;6281;49.038;8.372;2022-12-11T14:39:54;1.20;99.90
12434;DHT22;6281;49.038;8.372;2022-12-11T14:42:24;0.90;99.90
12434;DHT22;6281;49.038;8.372;2022-12-11T14:44:55;1.00;99.90
12434;DHT22;6281;49.038;8.372;2022-12-11T14:47:26;1.00;99.90
12434;DHT22;6281;49.038;8.372;2022-12-11T14:49:56;1.20;99.90
12434;DHT22;6281;49.038;8.372;2022-12-11T14:52:29;1.20;99.90
12434;DHT22;6281;49.038;8.372;2022-12-11T14:55:02;1.10;99.90
12434;DHT22;6281;49.038;8.372;2022-12-11T14:57:32;1.20;99.90
12434;DHT22;6281;49.038;8.372;2022-12-11T15:00:00;0.70;99.90
12434;DHT22;6281;49.038;8.372;2022-12-11T15:02:30;0.80;99.90
12434;DHT22;6281;49.038;8.372;2022-12-11T15:05:02;0.70;99.90
12434;DHT22;6281;49.038;8.372;2022-12-11T15:07:29;0.60;99.90
12434;DHT22;6281;49.038;8.372;2022-12-11T15:09:58;0.70;99.90
12434;DHT22;6281;49.038;8.372;2022-12-11T15:12:25;0.70;99.90
12434;DHT22;6281;49.038;8.372;2022-12-11T15:14:54;0.70;99.90
12434;DHT22;6281;49.038;8.372;2022-12-11T15:17:24;0.60;99.90
12434;DHT22;6281;49.038;8.372;2022-12-11T15:19:53;0.60;99.90
12434;DHT22;6281;49.038;8.372;2022-12-11T15:22:22;0.60;99.90
12434;DHT22;6281;49.038;8.372;2022-12-11T15:24:53;0.60;99.90
12434;DHT22;6281;49.038;8.372;2022-12-11T15:27:30;0.50;99.90
12434;DHT22;6281;49.038;8.372;2022-12-11T15:29:58;0.50;99.90
12434;DHT22;6281;49.038;8.372;2022-12-11T15:32:25;0.60;99.90
12434;DHT22;6281;49.038;8.372;2022-12-11T15:34:53;0.40;99.90
12434;DHT22;6281;49.038;8.372;2022-12-11T15:37:22;0.50;99.90
12434;DHT22;6281;49.038;8.372;2022-12-11T15:39:49;0.40;99.90
12434;DHT22;6281;49.038;8.372;2022-12-11T15:42:23;0.50;99.90
12434;DHT22;6281;49.038;8.372;2022-12-11T15:44:52;0.60;99.90
12434;DHT22;6281;49.038;8.372;2022-12-11T15:47:21;0.50;99.90
12434;DHT22;6281;49.038;8.372;2022-12-11T15:49:48;0.60;99.90
12434;DHT22;6281;49.038;8.372;2022-12-11T15:52:15;0.60;99.90
12434;DHT22;6281;49.038;8.372;2022-12-11T15:54:42;0.70;99.90
12434;DHT22;6281;49.038;8.372;2022-12-11T15:57:14;0.50;99.90
12434;DHT22;6281;49.038;8.372;2022-12-11T15:59:42;0.70;99.90
12434;DHT22;6281;49.038;8.372;2022-12-11T16:02:12;0.50;99.90
12434;DHT22;6281;49.038;8.372;2022-12-11T16:04:39;0.50;99.90
12434;DHT22;6281;49.038;8.372;2022-12-11T16:07:12;0.60;99.90
12434;DHT22;6281;49.038;8.372;2022-12-11T16:09:40;0.50;99.90
12434;DHT22;6281;49.038;8.372;2022-12-11T16:12:08;0.60;99.90
12434;DHT22;6281;49.038;8.372;2022-12-11T16:14:35;0.70;99.90
12434;DHT22;6281;49.038;8.372;2022-12-11T16:17:03;0.70;99.90
12434;DHT22;6281;49.038;8.372;2022-12-11T16:19:33;1.00;99.90